Strona główna
METAR-TAF:

METAR-TAF

Lotnisko :

Port lotniczy Hihifo

Wallis, Francja

Szerokość geograficzna: 13-14S, Długość geograficzna: 176-10W, wysokość: 23 m

METAR: brakujący

czas: 01:33 (13:33 UTC)

Prognoza

Raport powstał 2 godziny i 33 minut temu, godzina 11:00 UTC
Prognoza ważna od 20 godzina 12 UTC do 21 godzina 12 UTC
Wiatr 8 kt od południowy wschód
Widzialność 10 km lub więcej
Rozproszone chmury na wysokości 2000 ft

TAF: NLWW 201100Z 2012/2112 14008KT 9999 SCT020

Obserwacja i prognoza pogody dla ponad 4000 lotnisk (raport METAR i TAF).

Dostępne stacje oznaczono żółtymi i czerwonymi punktami na mapie.

Najedź kursorem aby zobaczyć nazwę stacji.

Kliknij aby zobaczyć obserwacje i prognozy pogody.

Aby zmienić mapę: kliknij na zielony przycisk z czarnym krzyżykiem, aby powiększyć; na zielony przycisk z myślnikiem, aby pomniejszyć; na zielone strzałki, aby przejść do map sąsiednich.


METAR-TAF: